Armagh, United Kingdom
Current Conditions -  °F | °C
As of 8:20 AM on Thursday 18 Dec 2014 (Local Time) from EGAA Reporting Station
Light Rain Light Rain  
Wind Chill: 52°   Ceiling: 800
Heat Index: 52°   Visibility: 6mi
Dew Point: 52°   Wind: 14mph
Humidity: 100%   Direction: 220°SW
Pressure: 29.41"   Gusts: 25mph
Location:  54.35°N, 6.67°W
Report Text: EGAA 180820Z 22012G22KT 9000 -RA BKN008 BKN017 11/11 Q0996
Loading
Personal Weather Stations






























Interactive Weather Map New forecast layout! Learn more

10-Day Weather Forecast

Advertisements
Track Severe Weather on mobile